Time;durP1;ratioP1;P1;durP2;ratioP2;P2;SDS_P1;SDS_P2;PMS_P1;PMS_P2;Temp;Humidity;BMP_temperature;BMP_pressure;BME280_temperature;BME280_humidity;BME280_pressure;Samples;Min_cycle;Max_cycle;Signal;HPM_P1;HPM_P2
2022/01/12 00:00:14;;;;;;;22.17;16.83;;;;;;;;;;5118533;27;24417;-59
2022/01/12 00:02:39;;;;;;;21.83;16.27;;;;;;;;;;5125109;27;24474;-59
2022/01/12 00:05:04;;;;;;;22.33;16.20;;;;;;;;;;5123177;27;24490;-60
2022/01/12 00:07:29;;;;;;;23.15;16.60;;;;;;;;;;5123150;27;24470;-59
2022/01/12 00:09:55;;;;;;;21.07;16.40;;;;;;;;;;5119338;27;24417;-59
2022/01/12 00:12:20;;;;;;;19.50;15.63;;;;;;;;;;5120145;27;24811;-59
2022/01/12 00:14:45;;;;;;;21.60;16.40;;;;;;;;;;5122876;27;24783;-58
2022/01/12 00:17:10;;;;;;;20.73;15.60;;;;;;;;;;5124104;27;24405;-59
2022/01/12 00:19:35;;;;;;;22.08;15.85;;;;;;;;;;5124143;27;24409;-59
2022/01/12 00:22:00;;;;;;;21.38;16.40;;;;;;;;;;5121251;27;24704;-59
2022/01/12 00:24:28;;;;;;;20.77;15.77;;;;;;;;;;5120980;27;24413;-58
2022/01/12 00:35:06;;;;;;;22.88;17.38;;;;;;;;;;5120446;27;24470;-58
2022/01/12 00:37:31;;;;;;;21.40;16.33;;;;;;;;;;5123656;27;24437;-59
2022/01/12 00:39:58;;;;;;;23.25;17.20;;;;;;;;;;5118584;27;24409;-59
2022/01/12 00:42:26;;;;;;;22.63;16.90;;;;;;;;;;5124545;27;24575;-59
2022/01/12 00:44:52;;;;;;;24.50;17.30;;;;;;;;;;5124107;27;24844;-60
2022/01/12 00:47:18;;;;;;;22.33;16.80;;;;;;;;;;5120846;27;24410;-59
2022/01/12 00:49:43;;;;;;;23.97;17.30;;;;;;;;;;5118716;27;24470;-59
2022/01/12 00:52:08;;;;;;;23.73;16.85;;;;;;;;;;5120644;27;24978;-59
2022/01/12 00:54:33;;;;;;;22.90;16.37;;;;;;;;;;5124230;27;24432;-59
2022/01/12 00:56:59;;;;;;;21.45;16.88;;;;;;;;;;5122933;27;24393;-59
2022/01/12 00:59:24;;;;;;;22.87;17.07;;;;;;;;;;5120337;27;25198;-59
2022/01/12 01:01:49;;;;;;;22.20;16.40;;;;;;;;;;5119676;27;24412;-59
2022/01/12 01:04:14;;;;;;;21.05;16.25;;;;;;;;;;5123755;27;24417;-59
2022/01/12 01:06:39;;;;;;;21.98;16.98;;;;;;;;;;5123938;27;24453;-60
2022/01/12 01:09:05;;;;;;;22.10;16.70;;;;;;;;;;5122336;27;24942;-59
2022/01/12 01:11:31;;;;;;;21.57;16.00;;;;;;;;;;5117451;27;24413;-59
2022/01/12 01:14:02;;;;;;;20.87;15.50;;;;;;;;;;5120034;27;25399;-59
2022/01/12 01:27:27;;;;;;;19.60;15.70;;;;;;;;;;5122647;27;24409;-59
2022/01/12 01:29:54;;;;;;;21.63;15.83;;;;;;;;;;5122121;27;24429;-59
2022/01/12 01:32:19;;;;;;;22.17;15.57;;;;;;;;;;5121516;27;24950;-59
2022/01/12 01:34:47;;;;;;;21.83;17.35;;;;;;;;;;5123642;27;24511;-59
2022/01/12 01:37:12;;;;;;;22.95;16.77;;;;;;;;;;5119807;27;24444;-59
2022/01/12 01:39:37;;;;;;;19.65;15.30;;;;;;;;;;5118024;27;24517;-59
2022/01/12 01:42:08;;;;;;;22.97;16.97;;;;;;;;;;5119999;27;24591;-59
2022/01/12 01:55:12;;;;;;;19.63;14.88;;;;;;;;;;5102420;27;24481;-58
2022/01/12 01:57:37;;;;;;;19.83;15.00;;;;;;;;;;5123090;27;24987;-58
2022/01/12 02:00:07;;;;;;;19.02;15.32;;;;;;;;;;5112138;27;25023;-58
2022/01/12 02:02:32;;;;;;;17.98;14.43;;;;;;;;;;5115513;27;24425;-57
2022/01/12 02:04:57;;;;;;;18.90;14.20;;;;;;;;;;5116771;28;24427;-59
2022/01/12 02:07:23;;;;;;;19.90;14.80;;;;;;;;;;5120877;28;24417;-59
2022/01/12 02:09:48;;;;;;;18.38;14.85;;;;;;;;;;5122546;28;24474;-58
2022/01/12 02:12:13;;;;;;;21.38;15.50;;;;;;;;;;5119731;28;24452;-59
2022/01/12 02:14:39;;;;;;;20.10;14.80;;;;;;;;;;5118159;28;24432;-59
2022/01/12 02:17:10;;;;;;;20.73;15.68;;;;;;;;;;5118477;28;25027;-59
2022/01/12 02:19:51;;;;;;;19.95;15.10;;;;;;;;;;5122083;28;24453;-58
2022/01/12 02:36:11;;;;;;;17.63;13.88;;;;;;;;;;5108249;28;24807;-59
2022/01/12 02:41:20;;;;;;;17.27;13.33;;;;;;;;;;5121694;28;24609;-59
2022/01/12 02:54:41;;;;;;;15.63;13.18;;;;;;;;;;5115804;28;24448;-59
2022/01/12 02:57:06;;;;;;;16.17;13.07;;;;;;;;;;5119425;28;24420;-59
2022/01/12 02:59:32;;;;;;;17.13;13.07;;;;;;;;;;5120932;27;24559;-58
2022/01/12 03:02:19;;;;;;;15.20;12.47;;;;;;;;;;5119292;27;24415;-59
2022/01/12 03:04:59;;;;;;;15.52;13.10;;;;;;;;;;5111641;27;24790;-59
2022/01/12 03:07:24;;;;;;;17.27;13.70;;;;;;;;;;5125640;27;24417;-58
2022/01/12 03:09:50;;;;;;;16.33;13.03;;;;;;;;;;5120943;27;24496;-59
2022/01/12 03:12:16;;;;;;;17.17;13.77;;;;;;;;;;5123490;27;24428;-58
2022/01/12 03:14:42;;;;;;;16.97;13.87;;;;;;;;;;5121161;27;24612;-59
2022/01/12 03:17:07;;;;;;;17.60;14.18;;;;;;;;;;5120289;27;24486;-58
2022/01/12 03:19:32;;;;;;;17.73;14.70;;;;;;;;;;5123860;27;24466;-58
2022/01/12 03:21:57;;;;;;;17.30;13.90;;;;;;;;;;5122602;27;24416;-58
2022/01/12 03:24:22;;;;;;;15.93;14.23;;;;;;;;;;5125448;27;24509;-58
2022/01/12 03:26:47;;;;;;;17.17;14.30;;;;;;;;;;5121222;27;24432;-59
2022/01/12 03:29:13;;;;;;;17.38;14.65;;;;;;;;;;5119827;27;24429;-59
2022/01/12 03:31:38;;;;;;;19.03;15.50;;;;;;;;;;5122482;27;24893;-58
2022/01/12 03:34:22;;;;;;;19.87;14.83;;;;;;;;;;5122814;27;24465;-58
2022/01/12 03:39:33;;;;;;;18.70;15.00;;;;;;;;;;5099790;27;24459;-57
2022/01/12 03:41:58;;;;;;;21.40;16.80;;;;;;;;;;5120819;27;24969;-57
2022/01/12 03:44:23;;;;;;;20.00;15.27;;;;;;;;;;5125000;27;24412;-59
2022/01/12 03:46:49;;;;;;;21.63;16.30;;;;;;;;;;5123846;27;24933;-59
2022/01/12 03:49:15;;;;;;;19.15;15.20;;;;;;;;;;5120585;27;25018;-59
2022/01/12 03:51:41;;;;;;;19.95;15.70;;;;;;;;;;5119356;27;24977;-58
2022/01/12 03:54:06;;;;;;;18.80;14.30;;;;;;;;;;5121211;27;24437;-59
2022/01/12 03:56:32;;;;;;;18.70;14.47;;;;;;;;;;5124604;27;24401;-59
2022/01/12 03:58:57;;;;;;;20.10;15.80;;;;;;;;;;5124442;27;24420;-58
2022/01/12 04:01:22;;;;;;;19.40;15.33;;;;;;;;;;5113534;27;25232;-58
2022/01/12 04:03:58;;;;;;;20.40;16.00;;;;;;;;;;5120662;27;24487;-58
2022/01/12 04:09:07;;;;;;;20.88;15.98;;;;;;;;;;5122283;27;24420;-58
2022/01/12 04:11:32;;;;;;;21.87;16.87;;;;;;;;;;5123811;27;24677;-58
2022/01/12 04:13:57;;;;;;;22.05;17.08;;;;;;;;;;5124340;27;25507;-58
2022/01/12 04:16:22;;;;;;;21.75;17.10;;;;;;;;;;5119138;27;24428;-59
2022/01/12 04:18:47;;;;;;;22.92;16.85;;;;;;;;;;5120728;27;24399;-57
2022/01/12 04:21:13;;;;;;;22.05;17.23;;;;;;;;;;5123311;27;24985;-57
2022/01/12 04:23:39;;;;;;;21.30;16.92;;;;;;;;;;5123731;27;24401;-58
2022/01/12 04:26:10;;;;;;;22.92;17.70;;;;;;;;;;5110276;27;24944;-58
2022/01/12 04:28:37;;;;;;;23.02;16.63;;;;;;;;;;5122302;27;24409;-58
2022/01/12 04:31:02;;;;;;;23.00;17.77;;;;;;;;;;5121260;27;24451;-57
2022/01/12 04:33:29;;;;;;;22.43;16.97;;;;;;;;;;5123432;27;24506;-58
2022/01/12 04:35:56;;;;;;;24.35;17.60;;;;;;;;;;5124053;27;24387;-59
2022/01/12 04:38:22;;;;;;;22.20;17.17;;;;;;;;;;5119853;27;24421;-58
2022/01/12 04:40:47;;;;;;;21.48;17.35;;;;;;;;;;5119706;27;24432;-59
2022/01/12 04:43:13;;;;;;;23.57;18.50;;;;;;;;;;5114241;27;25178;-58
2022/01/12 04:45:56;;;;;;;22.20;17.80;;;;;;;;;;5119915;27;25159;-59
2022/01/12 04:50:49;;;;;;;23.92;17.95;;;;;;;;;;5121562;27;24569;-59
2022/01/12 04:53:15;;;;;;;21.80;17.70;;;;;;;;;;5119363;27;24515;-58
2022/01/12 04:55:40;;;;;;;22.52;17.60;;;;;;;;;;5122298;27;24436;-59
2022/01/12 04:58:06;;;;;;;24.33;18.13;;;;;;;;;;5122483;27;24417;-59
2022/01/12 05:00:32;;;;;;;23.23;17.70;;;;;;;;;;5116643;27;24540;-59
2022/01/12 05:13:35;;;;;;;23.08;17.58;;;;;;;;;;5123415;27;24484;-57
2022/01/12 05:16:01;;;;;;;23.90;17.63;;;;;;;;;;5121246;27;24413;-58
2022/01/12 05:18:30;;;;;;;24.30;19.10;;;;;;;;;;5121816;27;24388;-57
2022/01/12 05:20:55;;;;;;;22.13;17.35;;;;;;;;;;5118572;27;24844;-58
2022/01/12 05:23:21;;;;;;;24.37;18.90;;;;;;;;;;5121378;27;24417;-59
2022/01/12 05:25:46;;;;;;;25.73;18.30;;;;;;;;;;5119755;27;24516;-59
2022/01/12 05:28:12;;;;;;;22.88;17.80;;;;;;;;;;5118064;27;24443;-59
2022/01/12 05:30:37;;;;;;;22.42;17.85;;;;;;;;;;5118907;27;25014;-59
2022/01/12 05:33:02;;;;;;;23.30;18.15;;;;;;;;;;5107254;27;24833;-59
2022/01/12 05:35:34;;;;;;;22.93;17.33;;;;;;;;;;5108009;27;24428;-59
2022/01/12 05:38:00;;;;;;;24.10;17.73;;;;;;;;;;5106905;27;24779;-58
2022/01/12 05:40:26;;;;;;;24.20;18.30;;;;;;;;;;5111996;27;24406;-57
2022/01/12 05:42:52;;;;;;;23.90;17.23;;;;;;;;;;5110751;27;24485;-58
2022/01/12 05:45:19;;;;;;;22.40;17.70;;;;;;;;;;5117485;27;24405;-58
2022/01/12 05:50:12;;;;;;;25.73;18.13;;;;;;;;;;5114728;27;24512;-59
2022/01/12 05:52:38;;;;;;;23.52;17.35;;;;;;;;;;5117508;27;24555;-59
2022/01/12 05:55:04;;;;;;;23.85;18.35;;;;;;;;;;5109908;27;24537;-59
2022/01/12 05:57:30;;;;;;;23.83;18.33;;;;;;;;;;5107486;28;24511;-58
2022/01/12 05:59:55;;;;;;;23.38;17.92;;;;;;;;;;5108216;27;24778;-58
2022/01/12 06:02:20;;;;;;;24.20;17.50;;;;;;;;;;5110612;27;24413;-58
2022/01/12 06:04:46;;;;;;;24.23;18.48;;;;;;;;;;5116227;27;25342;-59
2022/01/12 06:07:11;;;;;;;23.08;17.58;;;;;;;;;;5117301;27;24421;-59
2022/01/12 06:09:36;;;;;;;22.47;18.20;;;;;;;;;;5118920;28;24409;-59
2022/01/12 06:12:01;;;;;;;24.40;18.20;;;;;;;;;;5103746;28;24417;-59
2022/01/12 06:14:26;;;;;;;22.67;17.57;;;;;;;;;;5112074;28;25402;-59
2022/01/12 06:16:52;;;;;;;27.55;19.35;;;;;;;;;;5109887;28;24959;-59
2022/01/12 06:19:18;;;;;;;21.77;17.98;;;;;;;;;;5120323;28;24431;-58
2022/01/12 06:21:43;;;;;;;23.30;17.95;;;;;;;;;;5119164;28;25013;-60
2022/01/12 06:24:08;;;;;;;23.95;17.77;;;;;;;;;;5117273;27;24421;-60
2022/01/12 06:26:36;;;;;;;24.75;19.08;;;;;;;;;;5121362;28;24736;-59
2022/01/12 06:31:37;;;;;;;22.05;17.73;;;;;;;;;;5122856;28;24416;-59
2022/01/12 06:34:03;;;;;;;24.27;18.38;;;;;;;;;;5121442;27;24463;-59
2022/01/12 06:36:28;;;;;;;24.00;19.03;;;;;;;;;;5122093;27;24513;-58
2022/01/12 06:38:53;;;;;;;24.90;18.30;;;;;;;;;;5127025;27;24401;-60
2022/01/12 06:41:19;;;;;;;27.63;20.07;;;;;;;;;;5127034;27;24926;-57
2022/01/12 06:43:44;;;;;;;24.27;18.13;;;;;;;;;;5126923;27;24415;-58
2022/01/12 06:46:09;;;;;;;25.77;18.43;;;;;;;;;;5124593;27;24416;-58
2022/01/12 06:48:35;;;;;;;23.77;18.50;;;;;;;;;;5121700;27;24804;-58
2022/01/12 06:51:00;;;;;;;25.47;19.00;;;;;;;;;;5121550;27;24521;-57
2022/01/12 06:53:25;;;;;;;23.97;18.07;;;;;;;;;;5124841;27;24428;-58
2022/01/12 06:55:51;;;;;;;23.03;17.80;;;;;;;;;;5126013;27;20779;-59
2022/01/12 06:58:16;;;;;;;27.00;20.10;;;;;;;;;;5124682;27;24412;-60
2022/01/12 07:00:41;;;;;;;24.20;18.37;;;;;;;;;;5124563;27;24950;-58
2022/01/12 07:03:06;;;;;;;23.63;18.43;;;;;;;;;;5120803;27;24568;-58
2022/01/12 07:05:32;;;;;;;23.97;19.17;;;;;;;;;;5122929;27;24407;-58
2022/01/12 07:07:57;;;;;;;25.67;19.57;;;;;;;;;;5121642;27;24807;-59
2022/01/12 07:10:22;;;;;;;27.77;21.10;;;;;;;;;;5124568;27;24973;-58
2022/01/12 07:12:47;;;;;;;22.45;17.70;;;;;;;;;;5124088;27;24443;-58
2022/01/12 07:15:12;;;;;;;26.20;19.50;;;;;;;;;;5120183;27;24816;-59
2022/01/12 07:17:37;;;;;;;24.85;19.25;;;;;;;;;;5119948;27;24980;-58
2022/01/12 07:20:04;;;;;;;22.50;18.30;;;;;;;;;;5118957;27;24397;-58
2022/01/12 07:22:30;;;;;;;27.23;19.92;;;;;;;;;;5122833;27;25204;-58
2022/01/12 07:24:55;;;;;;;24.67;18.67;;;;;;;;;;5120047;27;24473;-58
2022/01/12 07:27:20;;;;;;;24.63;18.67;;;;;;;;;;5111612;27;24946;-58
2022/01/12 07:29:45;;;;;;;23.50;18.10;;;;;;;;;;5116683;27;24409;-58
2022/01/12 07:32:10;;;;;;;27.73;20.30;;;;;;;;;;5115397;27;25454;-58
2022/01/12 07:34:35;;;;;;;26.30;19.20;;;;;;;;;;5118709;27;24425;-61
2022/01/12 07:37:01;;;;;;;24.98;19.25;;;;;;;;;;5119859;27;24951;-58
2022/01/12 07:39:26;;;;;;;23.05;18.00;;;;;;;;;;5121474;27;25022;-58
2022/01/12 07:41:51;;;;;;;25.27;18.40;;;;;;;;;;5122791;27;24405;-57
2022/01/12 07:44:16;;;;;;;28.20;19.80;;;;;;;;;;5117739;27;24450;-58
2022/01/12 07:46:42;;;;;;;25.85;19.10;;;;;;;;;;5117321;27;24465;-58
2022/01/12 07:49:07;;;;;;;26.17;20.00;;;;;;;;;;5120214;27;24989;-58
2022/01/12 07:51:32;;;;;;;26.02;19.27;;;;;;;;;;5121302;27;24421;-58
2022/01/12 07:53:57;;;;;;;29.77;21.50;;;;;;;;;;5099704;27;24776;-59
2022/01/12 07:56:22;;;;;;;25.73;19.75;;;;;;;;;;5119535;27;24412;-59
2022/01/12 07:58:47;;;;;;;28.80;21.67;;;;;;;;;;5122347;27;24472;-60
2022/01/12 08:01:12;;;;;;;26.42;19.55;;;;;;;;;;5123733;27;24424;-59
2022/01/12 08:03:38;;;;;;;25.80;18.93;;;;;;;;;;5124060;27;24965;-58
2022/01/12 08:06:03;;;;;;;25.75;19.20;;;;;;;;;;5122647;27;24439;-59
2022/01/12 08:08:28;;;;;;;24.50;19.10;;;;;;;;;;5118876;27;24466;-59
2022/01/12 08:10:53;;;;;;;25.00;18.50;;;;;;;;;;5122511;27;24459;-59
2022/01/12 08:13:19;;;;;;;25.30;19.53;;;;;;;;;;5125020;27;24400;-59
2022/01/12 08:15:44;;;;;;;26.20;19.93;;;;;;;;;;5125229;27;24424;-60
2022/01/12 08:18:09;;;;;;;27.17;20.50;;;;;;;;;;5121575;27;24449;-60
2022/01/12 08:20:34;;;;;;;24.43;19.17;;;;;;;;;;5119672;27;24689;-60
2022/01/12 08:22:59;;;;;;;25.20;19.63;;;;;;;;;;5121325;27;24508;-59
2022/01/12 08:25:24;;;;;;;26.55;19.88;;;;;;;;;;5125266;27;24388;-59
2022/01/12 08:27:51;;;;;;;29.47;21.80;;;;;;;;;;5124844;27;24404;-58
2022/01/12 08:30:18;;;;;;;26.67;19.73;;;;;;;;;;5123293;27;24431;-61
2022/01/12 08:32:47;;;;;;;24.70;18.67;;;;;;;;;;5120926;27;24835;-59
2022/01/12 08:35:13;;;;;;;26.08;19.77;;;;;;;;;;5119405;27;24998;-59
2022/01/12 08:37:39;;;;;;;25.50;19.17;;;;;;;;;;5123035;27;24679;-59
2022/01/12 08:40:04;;;;;;;29.67;20.60;;;;;;;;;;5122960;27;24498;-59
2022/01/12 08:42:29;;;;;;;25.87;20.17;;;;;;;;;;5124079;27;24471;-59
2022/01/12 08:44:59;;;;;;;27.27;19.60;;;;;;;;;;5120910;27;24401;-59
2022/01/12 08:47:24;;;;;;;29.13;20.97;;;;;;;;;;5121070;27;24793;-59
2022/01/12 08:49:49;;;;;;;26.97;20.43;;;;;;;;;;5121288;27;24423;-59
2022/01/12 08:52:15;;;;;;;26.10;19.67;;;;;;;;;;5121816;27;24594;-59
2022/01/12 08:54:40;;;;;;;26.15;19.98;;;;;;;;;;5124269;27;24471;-59
2022/01/12 08:57:05;;;;;;;27.60;21.10;;;;;;;;;;5122351;27;24442;-57
2022/01/12 08:59:30;;;;;;;25.57;19.90;;;;;;;;;;5119262;27;24563;-58
2022/01/12 09:01:55;;;;;;;25.52;19.50;;;;;;;;;;5120580;27;24879;-58
2022/01/12 09:04:21;;;;;;;28.10;20.10;;;;;;;;;;5122281;27;24511;-59
2022/01/12 09:06:46;;;;;;;28.13;20.13;;;;;;;;;;5124688;27;24973;-59
2022/01/12 09:09:11;;;;;;;29.38;20.98;;;;;;;;;;5122616;27;24982;-58
2022/01/12 09:11:36;;;;;;;31.83;21.30;;;;;;;;;;5124671;27;24397;-59
2022/01/12 09:14:02;;;;;;;29.10;20.85;;;;;;;;;;5117377;27;24470;-59
2022/01/12 09:16:27;;;;;;;27.08;20.15;;;;;;;;;;5120799;27;24869;-58
2022/01/12 09:18:53;;;;;;;25.58;19.42;;;;;;;;;;5120710;27;24724;-59
2022/01/12 09:21:18;;;;;;;27.07;19.40;;;;;;;;;;5124093;27;24492;-58
2022/01/12 09:23:45;;;;;;;28.00;18.80;;;;;;;;;;5123630;27;24512;-59
2022/01/12 09:26:10;;;;;;;28.42;20.20;;;;;;;;;;5118508;27;24413;-59
2022/01/12 09:28:35;;;;;;;27.80;18.90;;;;;;;;;;5120134;27;24497;-58
2022/01/12 09:31:00;;;;;;;30.43;20.33;;;;;;;;;;5121730;27;24943;-58
2022/01/12 09:33:25;;;;;;;26.00;18.40;;;;;;;;;;5123608;27;24404;-59
2022/01/12 09:35:53;;;;;;;25.63;18.80;;;;;;;;;;5119794;27;24427;-60
2022/01/12 09:38:18;;;;;;;26.85;19.73;;;;;;;;;;5117132;27;24432;-58
2022/01/12 09:40:44;;;;;;;26.52;19.02;;;;;;;;;;5120191;27;24574;-58
2022/01/12 09:43:10;;;;;;;28.95;20.80;;;;;;;;;;5121655;27;24978;-59
2022/01/12 09:45:37;;;;;;;26.77;19.20;;;;;;;;;;5123838;27;24400;-59
2022/01/12 09:48:02;;;;;;;27.03;19.87;;;;;;;;;;5121950;27;24428;-58
2022/01/12 09:50:27;;;;;;;28.33;20.07;;;;;;;;;;5117960;27;24837;-58
2022/01/12 09:52:52;;;;;;;25.57;19.73;;;;;;;;;;5120277;27;24458;-59
2022/01/12 09:55:18;;;;;;;30.07;21.10;;;;;;;;;;5119519;27;24571;-59
2022/01/12 09:57:44;;;;;;;27.85;19.50;;;;;;;;;;5123844;27;24458;-58
2022/01/12 10:00:09;;;;;;;27.57;20.87;;;;;;;;;;5121313;27;24417;-59
2022/01/12 10:02:34;;;;;;;25.77;19.47;;;;;;;;;;5099510;27;24470;-59
2022/01/12 10:05:01;;;;;;;25.63;19.00;;;;;;;;;;5118411;27;24488;-59
2022/01/12 10:07:26;;;;;;;28.08;19.35;;;;;;;;;;5123415;27;24399;-58
2022/01/12 10:09:54;;;;;;;27.67;18.80;;;;;;;;;;5122489;27;24807;-59
2022/01/12 10:12:21;;;;;;;24.98;18.90;;;;;;;;;;5123134;28;24417;-59
2022/01/12 10:14:50;;;;;;;28.55;20.63;;;;;;;;;;5121214;28;24503;-57
2022/01/12 10:17:17;;;;;;;26.87;20.50;;;;;;;;;;5122846;28;24921;-59
2022/01/12 10:19:42;;;;;;;28.50;20.70;;;;;;;;;;5123004;28;24403;-59
2022/01/12 10:22:08;;;;;;;29.33;19.87;;;;;;;;;;5120748;28;24504;-59
2022/01/12 10:24:37;;;;;;;23.23;17.58;;;;;;;;;;5117688;28;24389;-58
2022/01/12 10:27:09;;;;;;;22.50;17.85;;;;;;;;;;5119216;28;24436;-59
2022/01/12 10:29:34;;;;;;;25.63;19.17;;;;;;;;;;5121965;28;24488;-59
2022/01/12 10:32:00;;;;;;;25.58;18.35;;;;;;;;;;5121586;28;24485;-59
2022/01/12 10:34:30;;;;;;;25.33;18.75;;;;;;;;;;5122848;28;24481;-59
2022/01/12 10:36:56;;;;;;;24.70;18.13;;;;;;;;;;5120624;28;24473;-59
2022/01/12 10:39:23;;;;;;;23.23;17.70;;;;;;;;;;5119182;28;24389;-59
2022/01/12 10:41:53;;;;;;;24.55;18.50;;;;;;;;;;5119723;28;24389;-59
2022/01/12 10:44:26;;;;;;;24.10;18.75;;;;;;;;;;5123086;28;24396;-61
2022/01/12 10:47:02;;;;;;;26.17;18.63;;;;;;;;;;5122636;28;24416;-60
2022/01/12 10:49:27;;;;;;;24.70;17.35;;;;;;;;;;5123173;28;24511;-60
2022/01/12 10:51:53;;;;;;;23.20;17.43;;;;;;;;;;5119176;28;24425;-60
2022/01/12 10:54:19;;;;;;;24.40;18.70;;;;;;;;;;5117222;28;24673;-58
2022/01/12 10:56:44;;;;;;;24.50;17.97;;;;;;;;;;5120050;28;25198;-57
2022/01/12 10:59:14;;;;;;;22.42;17.70;;;;;;;;;;5122820;28;24443;-57
2022/01/12 11:01:40;;;;;;;28.13;18.38;;;;;;;;;;5122820;28;24401;-59
2022/01/12 11:04:06;;;;;;;26.08;17.85;;;;;;;;;;5119449;28;24408;-59
2022/01/12 11:06:32;;;;;;;23.13;17.58;;;;;;;;;;5117816;28;24483;-58
2022/01/12 11:08:57;;;;;;;21.75;16.88;;;;;;;;;;5117453;28;24898;-59
2022/01/12 11:11:24;;;;;;;24.70;18.43;;;;;;;;;;5122970;28;24413;-58
2022/01/12 11:13:53;;;;;;;25.02;17.83;;;;;;;;;;5122645;28;24389;-58
2022/01/12 11:16:26;;;;;;;22.35;17.15;;;;;;;;;;5116376;28;24423;-59
2022/01/12 11:18:52;;;;;;;24.08;17.45;;;;;;;;;;5118448;28;24402;-59
2022/01/12 11:21:20;;;;;;;24.60;17.83;;;;;;;;;;5121028;27;24401;-59
2022/01/12 11:23:45;;;;;;;22.38;17.00;;;;;;;;;;5124227;27;24442;-58
2022/01/12 11:26:12;;;;;;;22.03;17.57;;;;;;;;;;5124277;27;24549;-59
2022/01/12 11:28:38;;;;;;;23.00;17.45;;;;;;;;;;5125890;27;24408;-59
2022/01/12 11:31:04;;;;;;;25.17;18.98;;;;;;;;;;5121382;27;24413;-59
2022/01/12 11:33:29;;;;;;;24.88;18.25;;;;;;;;;;5126151;27;24409;-59
2022/01/12 11:35:54;;;;;;;23.75;18.55;;;;;;;;;;5123489;27;24427;-59
2022/01/12 11:38:22;;;;;;;24.50;17.30;;;;;;;;;;5124140;27;24512;-59
2022/01/12 11:40:47;;;;;;;26.95;19.80;;;;;;;;;;5122730;27;24465;-60
2022/01/12 11:43:30;;;;;;;23.27;17.00;;;;;;;;;;5120483;27;24904;-59
2022/01/12 11:46:03;;;;;;;23.90;18.02;;;;;;;;;;5121466;27;24493;-59
2022/01/12 11:48:31;;;;;;;24.90;18.20;;;;;;;;;;5125434;27;24413;-58
2022/01/12 11:50:56;;;;;;;24.95;18.98;;;;;;;;;;5123835;27;24409;-59
2022/01/12 11:53:21;;;;;;;26.75;18.13;;;;;;;;;;5123617;27;24408;-59
2022/01/12 11:55:46;;;;;;;22.50;18.40;;;;;;;;;;5121357;27;24448;-59
2022/01/12 11:58:15;;;;;;;26.03;18.60;;;;;;;;;;5121662;27;24421;-58
2022/01/12 12:00:40;;;;;;;25.20;18.48;;;;;;;;;;5123576;27;24390;-60
2022/01/12 12:03:12;;;;;;;23.38;18.40;;;;;;;;;;5123613;27;24437;-61
2022/01/12 12:05:38;;;;;;;24.60;18.60;;;;;;;;;;5125505;27;24409;-59
2022/01/12 12:08:04;;;;;;;25.02;18.55;;;;;;;;;;5119491;27;24412;-59
2022/01/12 12:10:34;;;;;;;23.50;17.60;;;;;;;;;;5119559;27;24412;-58
2022/01/12 12:12:59;;;;;;;24.33;18.17;;;;;;;;;;5121319;27;24551;-59
2022/01/12 12:15:25;;;;;;;24.13;18.40;;;;;;;;;;5124545;27;24420;-61
2022/01/12 12:17:51;;;;;;;23.13;17.77;;;;;;;;;;5124648;27;24392;-60
2022/01/12 12:20:18;;;;;;;22.63;17.90;;;;;;;;;;5122528;27;24405;-60
2022/01/12 12:22:44;;;;;;;23.58;17.88;;;;;;;;;;5122825;27;24500;-59
2022/01/12 12:25:17;;;;;;;23.07;17.97;;;;;;;;;;5118160;27;24504;-60
2022/01/12 12:27:43;;;;;;;25.40;18.67;;;;;;;;;;5120308;27;24452;-58
2022/01/12 12:30:10;;;;;;;23.42;17.80;;;;;;;;;;5122339;27;24413;-59
2022/01/12 12:32:37;;;;;;;24.00;18.70;;;;;;;;;;5123923;27;24453;-59
2022/01/12 12:35:06;;;;;;;23.48;17.67;;;;;;;;;;5120299;27;24440;-59
2022/01/12 12:37:55;;;;;;;22.30;17.60;;;;;;;;;;5117897;27;24444;-59
2022/01/12 12:40:25;;;;;;;24.45;17.83;;;;;;;;;;5106398;27;24417;-59
2022/01/12 12:43:13;;;;;;;23.30;18.17;;;;;;;;;;5123668;27;24460;-59
2022/01/12 12:45:42;;;;;;;24.67;18.42;;;;;;;;;;5124238;27;24804;-59
2022/01/12 12:48:08;;;;;;;25.13;18.60;;;;;;;;;;5121989;27;24517;-59
2022/01/12 12:50:36;;;;;;;22.17;16.55;;;;;;;;;;5118098;27;24449;-59
2022/01/12 12:53:01;;;;;;;21.88;16.65;;;;;;;;;;5120457;27;24393;-59
2022/01/12 12:55:32;;;;;;;21.87;17.20;;;;;;;;;;5122056;27;24421;-59
2022/01/12 12:57:57;;;;;;;23.83;17.48;;;;;;;;;;5122587;27;24491;-59
2022/01/12 13:00:24;;;;;;;22.33;17.33;;;;;;;;;;5123482;27;24958;-59
2022/01/12 13:02:50;;;;;;;22.15;17.73;;;;;;;;;;5120186;27;24504;-59
2022/01/12 13:05:17;;;;;;;22.67;16.77;;;;;;;;;;5118176;27;24469;-59
2022/01/12 13:07:43;;;;;;;21.38;16.15;;;;;;;;;;5120327;27;24480;-58
2022/01/12 13:10:15;;;;;;;20.65;16.48;;;;;;;;;;5121578;27;24516;-58
2022/01/12 13:12:42;;;;;;;21.40;16.38;;;;;;;;;;5123684;27;24397;-59
2022/01/12 13:15:10;;;;;;;19.98;15.82;;;;;;;;;;5117438;27;24984;-62
2022/01/12 13:17:38;;;;;;;18.00;15.20;;;;;;;;;;5117754;27;24393;-59
2022/01/12 13:22:36;;;;;;;19.13;15.30;;;;;;;;;;5123503;27;24958;-59
2022/01/12 13:25:04;;;;;;;19.85;15.70;;;;;;;;;;5121409;27;24728;-59
2022/01/12 13:27:31;;;;;;;20.13;15.40;;;;;;;;;;5119709;27;24404;-59
2022/01/12 13:29:56;;;;;;;20.10;15.15;;;;;;;;;;5126807;27;25093;-58
2022/01/12 13:32:21;;;;;;;17.70;14.85;;;;;;;;;;5126631;27;24512;-59
2022/01/12 13:34:56;;;;;;;19.90;15.80;;;;;;;;;;5127148;27;24427;-59
2022/01/12 13:37:22;;;;;;;20.40;16.25;;;;;;;;;;5126339;27;24756;-59
2022/01/12 13:39:48;;;;;;;19.10;15.43;;;;;;;;;;5127428;27;24988;-59
2022/01/12 13:42:13;;;;;;;19.97;15.80;;;;;;;;;;5126324;27;24417;-58
2022/01/12 13:44:38;;;;;;;21.05;16.13;;;;;;;;;;5125412;27;24508;-59
2022/01/12 13:47:10;;;;;;;21.20;16.20;;;;;;;;;;5126684;27;24435;-58
2022/01/12 13:49:35;;;;;;;19.30;15.00;;;;;;;;;;5126660;27;24484;-60
2022/01/12 13:52:07;;;;;;;17.10;13.57;;;;;;;;;;5126926;27;24481;-58
2022/01/12 13:54:35;;;;;;;17.67;13.88;;;;;;;;;;5126129;27;24553;-58
2022/01/12 13:57:00;;;;;;;16.30;13.75;;;;;;;;;;5126453;27;24382;-58
2022/01/12 13:59:28;;;;;;;13.48;11.48;;;;;;;;;;5126448;27;24443;-58
2022/01/12 14:01:54;;;;;;;10.80;9.70;;;;;;;;;;5126560;27;24397;-58
2022/01/12 14:04:23;;;;;;;10.63;9.52;;;;;;;;;;5126307;27;24412;-58
2022/01/12 14:06:52;;;;;;;10.60;9.10;;;;;;;;;;5115015;27;24421;-59
2022/01/12 14:09:51;;;;;;;12.60;9.70;;;;;;;;;;5125904;28;24581;-59
2022/01/12 14:12:13;;;;;;;10.98;9.13;;;;;;;;;;5123457;28;24482;-58
2022/01/12 14:14:44;;;;;;;9.18;8.20;;;;;;;;;;5126354;28;24518;-59
2022/01/12 14:17:20;;;;;;;10.30;9.25;;;;;;;;;;5125860;28;24482;-59
2022/01/12 14:20:22;;;;;;;10.20;9.20;;;;;;;;;;5126100;28;24456;-58
2022/01/12 14:22:51;;;;;;;10.70;9.13;;;;;;;;;;5109704;28;24413;-58
2022/01/12 14:25:17;;;;;;;10.00;9.00;;;;;;;;;;5125383;28;24466;-58
2022/01/12 14:27:42;;;;;;;12.43;9.90;;;;;;;;;;5126118;28;24421;-58
2022/01/12 14:30:09;;;;;;;10.05;9.05;;;;;;;;;;5126325;28;24436;-57
2022/01/12 14:32:37;;;;;;;11.80;10.60;;;;;;;;;;5125856;28;24930;-59
2022/01/12 14:35:07;;;;;;;11.00;9.63;;;;;;;;;;5126589;28;24528;-58
2022/01/12 14:37:32;;;;;;;9.40;8.43;;;;;;;;;;5126304;28;24821;-58
2022/01/12 14:39:58;;;;;;;12.73;10.57;;;;;;;;;;5126869;28;24384;-58
2022/01/12 14:42:23;;;;;;;11.10;9.57;;;;;;;;;;5126358;28;24923;-58
2022/01/12 14:44:48;;;;;;;12.33;9.77;;;;;;;;;;5125909;28;24401;-57
2022/01/12 14:47:13;;;;;;;12.30;11.00;;;;;;;;;;5118178;28;24477;-58
2022/01/12 14:49:38;;;;;;;11.40;9.88;;;;;;;;;;5124418;28;24478;-59
2022/01/12 14:52:04;;;;;;;12.10;10.80;;;;;;;;;;5123447;28;24460;-59
2022/01/12 14:54:29;;;;;;;11.07;9.87;;;;;;;;;;5123145;27;25205;-58
2022/01/12 14:56:54;;;;;;;12.77;10.32;;;;;;;;;;5126585;27;24500;-58
2022/01/12 14:59:19;;;;;;;10.47;9.10;;;;;;;;;;5127447;27;24409;-59
2022/01/12 15:01:45;;;;;;;11.83;10.10;;;;;;;;;;5126475;27;24440;-59
2022/01/12 15:04:10;;;;;;;13.40;10.30;;;;;;;;;;5127325;27;25027;-59
2022/01/12 15:06:35;;;;;;;13.27;11.10;;;;;;;;;;5125359;27;24496;-58
2022/01/12 15:09:00;;;;;;;12.10;9.32;;;;;;;;;;5127309;27;24405;-58
2022/01/12 15:11:25;;;;;;;11.60;9.90;;;;;;;;;;5127364;27;25066;-58
2022/01/12 15:13:57;;;;;;;11.35;10.15;;;;;;;;;;5126504;27;24424;-58
2022/01/12 15:16:22;;;;;;;11.98;10.10;;;;;;;;;;5111210;27;24424;-58
2022/01/12 15:18:47;;;;;;;12.00;10.30;;;;;;;;;;5126643;27;24409;-58
2022/01/12 15:21:12;;;;;;;12.53;10.60;;;;;;;;;;5127414;27;24967;-59
2022/01/12 15:23:38;;;;;;;10.67;9.57;;;;;;;;;;5124797;27;24465;-58
2022/01/12 15:26:03;;;;;;;11.15;9.32;;;;;;;;;;5126346;27;24421;-59
2022/01/12 15:28:28;;;;;;;12.18;9.80;;;;;;;;;;5128259;27;24397;-59
2022/01/12 15:30:53;;;;;;;12.20;9.80;;;;;;;;;;5111318;27;24437;-58
2022/01/12 15:33:19;;;;;;;12.90;10.40;;;;;;;;;;5129593;27;24934;-59
2022/01/12 15:35:44;;;;;;;11.50;9.47;;;;;;;;;;5128807;27;24528;-59
2022/01/12 15:38:10;;;;;;;11.83;9.57;;;;;;;;;;5129086;27;24444;-58